Franklin, GA

6:55 PM EST on January 23, 2017 (GMT -0500)
CentralHatchee | | Change Station
Active Advisory: Wind Advisory

Elev 725 ft 33.35 °N, 85.08 °W | Updated 1 second ago

Clear
Clear
53.8 °F
Feels Like 53.8 °F
N
2.0
Wind Variable Wind from WSW

Today
High -- | Low -- °F
--% Chance of Precip.
Yesterday
High -- | Low -- °F
Precip. -- in
Pressure 29.64 in
Visibility 10.0 miles
Clouds Clear
Dew Point 47 °F
Humidity 78%
Rainfall 0.00 in
Snow Depth Not available.
7:41 AM 6:03 PM
Waning Crescent, 15% visible
METAR KLGC 232335Z AUTO 32007KT 10SM CLR 15/10 A2964 RMK AO2 T01470098
Pressure 29.64 in
Visibility 10.0 miles
Clouds Clear
Dew Point 47 °F
Humidity 78%
Rainfall 0.00 in
Snow Depth Not available.
7:41 AM 6:03 PM
Waning Crescent, 15% visible
METAR KLGC 232335Z AUTO 32007KT 10SM CLR 15/10 A2964 RMK AO2 T01470098

Get Your Daily Forecast Email!

Thanks for signing up!

Be on the lookout for a verification email in your inbox.

You'll start receiving the daily forecast at 8 AM.

×

10-Day Weather Forecast

Almanac

Astronomy

Jan. 23, 2017 Rise Set
Actual Time
Civil Twilight
Nautical Twilight
Astronomical Twilight
Moon
Length of Visible Light
Length of Day
Tomorrow will be .
, % of the Moon is Illuminated

Today's Extremes

State Highs State Lows

Community

WunderPhotos

Upload Photos

1,962,540 photos uploaded!

WunderBlog® & News

Nearby

Air Quality

  Air Quality AQ Index Pollutant
Not available.

Snow Depth

Station Depth Elevation

Earthquake Activity

City Distance Mag. Time & Date
Minimum magnitude displayed is 2.5.

Coastal Water Temperatures

Place Temperature

Stations

Nearby Weather Stations

Station Location Temp. Windchill Dew Point Humidity Wind Precip. Elev Updated Type
                   

Watches & Warnings

Wind Advisory
Issued: 2:39 PM EST Jan. 23, 2017 – National Weather Service

... Wind Advisory remains in effect until 7 PM EST this evening...

* locations... north and central Georgia

* winds... northwest 20 to 25 mph with gusts of 25 to 35 mph...
although in the higher elevations of the mountains winds could
gust to near 40 mph.

* Timing... until 7 PM... however winds may remain gusty into
tonight in the higher terrain.

* Impacts... these winds may break tree branches and down weaker
trees... particularly those in saturated soils due to recent
heavy rainfall. Unsecured outdoor items may be blown around.

Precautionary/preparedness actions...

A Wind Advisory means that winds of at least 20 mph or wind gusts
of at least 35 mph mph are expected. Winds this strong can make
driving difficult... especially for high profile vehicles. Use
extra caution.